Time;durP1;ratioP1;P1;durP2;ratioP2;P2;SDS_P1;SDS_P2;PMS_P1;PMS_P2;Temp;Humidity;BMP_temperature;BMP_pressure;BME280_temperature;BME280_humidity;BME280_pressure;Samples;Min_cycle;Max_cycle;Signal;HPM_P1;HPM_P2
2021/10/04 00:00:12;;;;;;;;;6.67;5.33;;;;;;;;2773735;51;8814;-59
2021/10/04 00:02:37;;;;;;;;;6.00;5.75;;;;;;;;2774192;51;8786;-60
2021/10/04 00:05:03;;;;;;;;;3.67;2.33;;;;;;;;2773816;51;8774;-59
2021/10/04 00:07:29;;;;;;;;;5.00;2.00;;;;;;;;2773959;51;8762;-60
2021/10/04 00:09:54;;;;;;;;;6.00;5.00;;;;;;;;2773748;51;8800;-59
2021/10/04 00:12:20;;;;;;;;;3.00;2.00;;;;;;;;2773961;51;8798;-60
2021/10/04 00:14:46;;;;;;;;;2.33;1.33;;;;;;;;2773946;51;8762;-60
2021/10/04 00:17:11;;;;;;;;;2.00;2.00;;;;;;;;2773893;51;8762;-60
2021/10/04 00:19:37;;;;;;;;;1.33;1.33;;;;;;;;2773775;51;8805;-59
2021/10/04 00:22:03;;;;;;;;;4.33;2.00;;;;;;;;2773681;51;8770;-60
2021/10/04 00:24:29;;;;;;;;;1.00;1.00;;;;;;;;2773694;51;8798;-59
2021/10/04 00:26:54;;;;;;;;;1.00;1.00;;;;;;;;2773872;51;10366;-58
2021/10/04 00:29:20;;;;;;;;;2.33;2.00;;;;;;;;2773750;51;8774;-59
2021/10/04 00:31:47;;;;;;;;;6.00;1.00;;;;;;;;2773653;51;8786;-61
2021/10/04 00:34:12;;;;;;;;;1.00;1.00;;;;;;;;2773662;51;9424;-59
2021/10/04 00:36:38;;;;;;;;;1.67;1.67;;;;;;;;2773811;51;8779;-60
2021/10/04 00:39:04;;;;;;;;;6.00;4.33;;;;;;;;2773675;51;8905;-59
2021/10/04 00:41:30;;;;;;;;;5.00;5.00;;;;;;;;2773844;51;8783;-60
2021/10/04 00:43:56;;;;;;;;;2.50;1.75;;;;;;;;2773616;51;8775;-59
2021/10/04 00:46:23;;;;;;;;;5.75;2.25;;;;;;;;2773576;51;8869;-59
2021/10/04 00:48:48;;;;;;;;;2.75;1.50;;;;;;;;2773577;51;8774;-59
2021/10/04 00:51:15;;;;;;;;;8.33;4.33;;;;;;;;2773752;51;8863;-60
2021/10/04 00:53:41;;;;;;;;;3.00;3.00;;;;;;;;2774044;51;8775;-59
2021/10/04 00:56:07;;;;;;;;;2.00;2.00;;;;;;;;2773438;51;8790;-60
2021/10/04 00:58:33;;;;;;;;;5.00;5.00;;;;;;;;2773527;51;8786;-60
2021/10/04 01:00:58;;;;;;;;;4.50;4.50;;;;;;;;2778341;51;9586;-59
2021/10/04 01:03:24;;;;;;;;;2.67;2.33;;;;;;;;2773746;51;8869;-60
2021/10/04 01:05:50;;;;;;;;;8.67;3.00;;;;;;;;2773711;51;8762;-60
2021/10/04 01:08:15;;;;;;;;;7.33;4.33;;;;;;;;2774107;51;8775;-60
2021/10/04 01:10:41;;;;;;;;;5.33;5.33;;;;;;;;2773625;51;8790;-59
2021/10/04 01:13:07;;;;;;;;;7.33;3.67;;;;;;;;2773733;51;9435;-59
2021/10/04 01:15:32;;;;;;;;;1.00;0.33;;;;;;;;2773892;51;8773;-60
2021/10/04 01:17:58;;;;;;;;;6.00;5.33;;;;;;;;2773640;51;8763;-60
2021/10/04 01:20:25;;;;;;;;;8.67;5.67;;;;;;;;2778302;51;8843;-60
2021/10/04 01:22:50;;;;;;;;;6.25;3.50;;;;;;;;2773476;51;8790;-60
2021/10/04 01:25:17;;;;;;;;;6.67;4.33;;;;;;;;2773506;51;8769;-60
2021/10/04 01:27:45;;;;;;;;;5.00;3.50;;;;;;;;2773450;51;8778;-60
2021/10/04 01:30:11;;;;;;;;;7.50;5.50;;;;;;;;2773881;51;8763;-60
2021/10/04 01:32:37;;;;;;;;;6.67;5.33;;;;;;;;2778253;51;8785;-60
2021/10/04 01:35:04;;;;;;;;;5.00;2.00;;;;;;;;2773494;51;8796;-61
2021/10/04 01:37:29;;;;;;;;;5.50;3.50;;;;;;;;2773526;51;8885;-60
2021/10/04 01:39:55;;;;;;;;;7.00;5.67;;;;;;;;2773393;51;8821;-59
2021/10/04 01:42:20;;;;;;;;;7.00;4.33;;;;;;;;2778164;51;8813;-59
2021/10/04 01:44:46;;;;;;;;;4.67;4.67;;;;;;;;2773615;51;8787;-59
2021/10/04 01:47:12;;;;;;;;;4.33;2.33;;;;;;;;2773379;51;8777;-60
2021/10/04 01:49:37;;;;;;;;;2.33;2.33;;;;;;;;2773577;51;8774;-60
2021/10/04 01:52:03;;;;;;;;;2.33;1.33;;;;;;;;2773595;51;8758;-59
2021/10/04 01:54:29;;;;;;;;;5.00;3.33;;;;;;;;2773591;51;8779;-61
2021/10/04 01:56:54;;;;;;;;;2.67;2.67;;;;;;;;2773782;51;8840;-61
2021/10/04 01:59:20;;;;;;;;;4.67;1.67;;;;;;;;2773436;51;8803;-60
2021/10/04 02:01:45;;;;;;;;;6.67;4.00;;;;;;;;2773434;51;8767;-59
2021/10/04 02:04:11;;;;;;;;;4.00;4.00;;;;;;;;2773425;51;8802;-60
2021/10/04 02:06:36;;;;;;;;;4.00;4.00;;;;;;;;2773411;51;8868;-59
2021/10/04 02:09:02;;;;;;;;;7.33;4.33;;;;;;;;2773300;51;8793;-61
2021/10/04 02:11:28;;;;;;;;;1.00;1.00;;;;;;;;2773155;51;8888;-60
2021/10/04 02:13:53;;;;;;;;;2.00;2.00;;;;;;;;2773292;51;9561;-60
2021/10/04 02:16:19;;;;;;;;;1.67;1.67;;;;;;;;2777942;51;8885;-60
2021/10/04 02:18:45;;;;;;;;;4.67;3.33;;;;;;;;2773386;51;8893;-60
2021/10/04 02:21:10;;;;;;;;;1.33;1.00;;;;;;;;2773462;51;8786;-60
2021/10/04 02:23:36;;;;;;;;;5.00;2.00;;;;;;;;2773307;51;8783;-60
2021/10/04 02:26:02;;;;;;;;;4.00;2.00;;;;;;;;2773401;51;8774;-61
2021/10/04 02:28:27;;;;;;;;;0.67;0.67;;;;;;;;2773442;51;8767;-62
2021/10/04 02:30:53;;;;;;;;;3.33;1.33;;;;;;;;2773464;51;8763;-60
2021/10/04 02:33:19;;;;;;;;;4.33;1.00;;;;;;;;2773380;51;8774;-59
2021/10/04 02:35:44;;;;;;;;;2.25;1.00;;;;;;;;2773561;51;8755;-59
2021/10/04 02:38:10;;;;;;;;;1.33;1.33;;;;;;;;2773191;51;8811;-62
2021/10/04 02:40:36;;;;;;;;;3.33;2.00;;;;;;;;2773176;51;9451;-60
2021/10/04 02:43:02;;;;;;;;;1.33;1.33;;;;;;;;2773632;51;8774;-61
2021/10/04 02:45:28;;;;;;;;;0.50;0.50;;;;;;;;2773584;51;10079;-60
2021/10/04 02:47:55;;;;;;;;;0.00;0.00;;;;;;;;2773193;51;8775;-59
2021/10/04 02:50:21;;;;;;;;;4.25;1.75;;;;;;;;2773170;51;8758;-60
2021/10/04 02:52:47;;;;;;;;;5.25;2.75;;;;;;;;2772870;51;8773;-58
2021/10/04 02:55:13;;;;;;;;;2.33;1.33;;;;;;;;2773345;51;8774;-59
2021/10/04 02:57:38;;;;;;;;;1.00;1.00;;;;;;;;2773106;51;8963;-61
2021/10/04 03:00:06;;;;;;;;;5.00;3.00;;;;;;;;2773081;51;8791;-61
2021/10/04 03:02:32;;;;;;;;;4.50;2.50;;;;;;;;2773168;51;9375;-61
2021/10/04 03:04:57;;;;;;;;;6.00;3.33;;;;;;;;2773369;51;8763;-61
2021/10/04 03:07:23;;;;;;;;;4.67;4.67;;;;;;;;2773191;51;8782;-58
2021/10/04 03:09:49;;;;;;;;;4.67;1.67;;;;;;;;2772974;51;8805;-60
2021/10/04 03:12:14;;;;;;;;;3.33;3.00;;;;;;;;2773610;51;8787;-60
2021/10/04 03:14:40;;;;;;;;;2.00;2.00;;;;;;;;2773061;51;8844;-60
2021/10/04 03:17:05;;;;;;;;;3.33;3.33;;;;;;;;2773122;51;9372;-61
2021/10/04 03:19:31;;;;;;;;;5.67;1.67;;;;;;;;2772987;51;8794;-60
2021/10/04 03:21:57;;;;;;;;;1.33;1.33;;;;;;;;2772694;51;8790;-59
2021/10/04 03:24:22;;;;;;;;;1.67;1.00;;;;;;;;2772910;51;8771;-59
2021/10/04 03:26:48;;;;;;;;;2.00;2.00;;;;;;;;2772990;51;8775;-61
2021/10/04 03:29:16;;;;;;;;;2.00;2.00;;;;;;;;2772819;51;8918;-61
2021/10/04 03:31:42;;;;;;;;;2.75;2.25;;;;;;;;2772932;51;9456;-60
2021/10/04 03:34:07;;;;;;;;;3.67;3.33;;;;;;;;2773060;51;8763;-61
2021/10/04 03:36:33;;;;;;;;;4.00;4.00;;;;;;;;2773026;51;8885;-62
2021/10/04 03:38:59;;;;;;;;;1.00;1.00;;;;;;;;2772893;51;8793;-65
2021/10/04 03:41:24;;;;;;;;;1.67;1.00;;;;;;;;2772936;51;8767;-61
2021/10/04 03:43:50;;;;;;;;;0.00;0.00;;;;;;;;2773078;51;8763;-60
2021/10/04 03:46:16;;;;;;;;;0.00;0.00;;;;;;;;2772924;51;8885;-60
2021/10/04 03:48:42;;;;;;;;;0.67;0.67;;;;;;;;2772765;51;8794;-61
2021/10/04 03:51:07;;;;;;;;;0.00;0.00;;;;;;;;2772897;51;8872;-59
2021/10/04 03:53:33;;;;;;;;;0.33;0.33;;;;;;;;2773200;51;8758;-60
2021/10/04 03:55:59;;;;;;;;;1.00;0.00;;;;;;;;2772969;51;8785;-61
2021/10/04 03:58:24;;;;;;;;;0.00;0.00;;;;;;;;2772729;51;8791;-61
2021/10/04 04:00:50;;;;;;;;;0.67;0.67;;;;;;;;2772922;51;8771;-60
2021/10/04 04:03:15;;;;;;;;;4.33;1.33;;;;;;;;2773049;51;8790;-60
2021/10/04 04:05:41;;;;;;;;;1.00;1.00;;;;;;;;2772929;51;8910;-62
2021/10/04 04:08:07;;;;;;;;;2.67;0.67;;;;;;;;2772706;51;8803;-61
2021/10/04 04:10:32;;;;;;;;;0.33;0.33;;;;;;;;2772690;51;8779;-61
2021/10/04 04:12:58;;;;;;;;;1.00;0.33;;;;;;;;2772799;51;8778;-62
2021/10/04 04:15:24;;;;;;;;;1.33;1.33;;;;;;;;2772983;51;8766;-60
2021/10/04 04:17:49;;;;;;;;;1.67;1.67;;;;;;;;2772793;51;8774;-61
2021/10/04 04:20:15;;;;;;;;;1.00;1.00;;;;;;;;2772674;51;8779;-60
2021/10/04 04:22:41;;;;;;;;;2.00;1.00;;;;;;;;2773020;51;8885;-60
2021/10/04 04:25:07;;;;;;;;;2.50;2.50;;;;;;;;2772633;51;8880;-60
2021/10/04 04:27:32;;;;;;;;;2.75;1.25;;;;;;;;2777503;51;8743;-60
2021/10/04 04:30:00;;;;;;;;;1.00;1.00;;;;;;;;2772682;51;8799;-61
2021/10/04 04:32:27;;;;;;;;;1.00;1.00;;;;;;;;2772810;51;8770;-60
2021/10/04 04:34:53;;;;;;;;;3.25;1.25;;;;;;;;2773335;51;8807;-60
2021/10/04 04:37:18;;;;;;;;;1.00;0.67;;;;;;;;2773610;51;8766;-61
2021/10/04 04:39:44;;;;;;;;;1.00;1.00;;;;;;;;2773731;51;8775;-60
2021/10/04 04:42:10;;;;;;;;;2.75;2.75;;;;;;;;2773888;51;8789;-59
2021/10/04 04:44:36;;;;;;;;;1.00;0.00;;;;;;;;2773663;51;8758;-59
2021/10/04 04:47:02;;;;;;;;;2.33;1.33;;;;;;;;2773529;51;9428;-57
2021/10/04 04:49:28;;;;;;;;;1.00;1.00;;;;;;;;2775651;51;8800;-59
2021/10/04 04:51:54;;;;;;;;;1.00;1.00;;;;;;;;2774954;51;8912;-58
2021/10/04 04:54:20;;;;;;;;;1.00;1.00;;;;;;;;2779529;51;8769;-57
2021/10/04 04:56:46;;;;;;;;;4.33;1.00;;;;;;;;2776760;51;8791;-60
2021/10/04 04:59:11;;;;;;;;;1.33;0.00;;;;;;;;2773553;51;8881;-56
2021/10/04 05:01:37;;;;;;;;;1.33;1.33;;;;;;;;2773648;51;9444;-58
2021/10/04 05:04:03;;;;;;;;;0.33;0.33;;;;;;;;2773524;51;8789;-59
2021/10/04 05:06:28;;;;;;;;;1.00;1.00;;;;;;;;2779508;51;11427;-58
2021/10/04 05:08:54;;;;;;;;;1.33;1.33;;;;;;;;2779653;51;8900;-59
2021/10/04 05:11:20;;;;;;;;;1.33;1.33;;;;;;;;2779683;51;8792;-58
2021/10/04 05:13:46;;;;;;;;;2.75;2.00;;;;;;;;2779618;51;8768;-58
2021/10/04 05:16:12;;;;;;;;;2.40;2.00;;;;;;;;2779731;51;8772;-57
2021/10/04 05:18:38;;;;;;;;;1.00;1.00;;;;;;;;2779571;51;8771;-58
2021/10/04 05:21:03;;;;;;;;;2.00;2.00;;;;;;;;2779573;51;8782;-57
2021/10/04 05:23:30;;;;;;;;;2.25;2.00;;;;;;;;2773865;51;8767;-58
2021/10/04 05:25:56;;;;;;;;;1.00;1.00;;;;;;;;2773487;51;8786;-60
2021/10/04 05:28:21;;;;;;;;;2.00;2.00;;;;;;;;2773314;51;8889;-57
2021/10/04 05:30:47;;;;;;;;;0.75;0.75;;;;;;;;2773573;51;9479;-58
2021/10/04 05:33:13;;;;;;;;;1.00;1.00;;;;;;;;2773580;51;9427;-58
2021/10/04 05:35:38;;;;;;;;;3.00;1.50;;;;;;;;2773535;51;8899;-56
2021/10/04 05:38:04;;;;;;;;;3.25;1.75;;;;;;;;2773520;51;8842;-57
2021/10/04 05:40:29;;;;;;;;;3.00;2.25;;;;;;;;2773390;51;9420;-58
2021/10/04 05:42:55;;;;;;;;;4.00;4.00;;;;;;;;2773406;51;8775;-57
2021/10/04 05:45:21;;;;;;;;;5.50;3.00;;;;;;;;2773289;51;8767;-58
2021/10/04 05:47:46;;;;;;;;;4.25;4.00;;;;;;;;2773507;51;8771;-57
2021/10/04 05:50:12;;;;;;;;;3.00;2.00;;;;;;;;2773339;51;8791;-58
2021/10/04 05:52:38;;;;;;;;;3.40;3.40;;;;;;;;2773292;51;8884;-58
2021/10/04 05:55:04;;;;;;;;;3.25;3.25;;;;;;;;2773590;51;8782;-58
2021/10/04 05:57:30;;;;;;;;;6.80;4.80;;;;;;;;2778806;51;8767;-58
2021/10/04 05:59:56;;;;;;;;;5.00;4.00;;;;;;;;2779364;51;8780;-58
2021/10/04 06:02:22;;;;;;;;;5.50;2.50;;;;;;;;2779335;51;8890;-59
2021/10/04 06:04:47;;;;;;;;;3.60;2.40;;;;;;;;2779113;51;8772;-58
2021/10/04 06:07:13;;;;;;;;;3.00;3.00;;;;;;;;2779345;51;8779;-59
2021/10/04 06:09:38;;;;;;;;;4.00;4.00;;;;;;;;2779227;51;8930;-58
2021/10/04 06:12:04;;;;;;;;;4.25;3.00;;;;;;;;2779405;51;8799;-59
2021/10/04 06:14:30;;;;;;;;;3.75;3.25;;;;;;;;2779233;51;8791;-58
2021/10/04 06:16:55;;;;;;;;;3.75;3.00;;;;;;;;2779429;51;11349;-57
2021/10/04 06:19:21;;;;;;;;;5.00;5.00;;;;;;;;2779484;51;8799;-60
2021/10/04 06:21:47;;;;;;;;;3.00;2.60;;;;;;;;2779279;51;8886;-60
2021/10/04 06:24:13;;;;;;;;;4.00;2.80;;;;;;;;2779293;51;8768;-58
2021/10/04 06:26:39;;;;;;;;;1.75;1.75;;;;;;;;2775927;51;8767;-58
2021/10/04 06:29:04;;;;;;;;;5.75;4.75;;;;;;;;2773174;51;8807;-58
2021/10/04 06:31:30;;;;;;;;;3.00;3.00;;;;;;;;2773180;51;8767;-57
2021/10/04 06:33:56;;;;;;;;;7.75;4.50;;;;;;;;2773311;51;8921;-58
2021/10/04 06:36:21;;;;;;;;;3.75;3.75;;;;;;;;2773057;51;8906;-60
2021/10/04 06:38:47;;;;;;;;;4.75;4.25;;;;;;;;2773299;51;8783;-58
2021/10/04 06:41:13;;;;;;;;;4.50;3.75;;;;;;;;2773379;51;8774;-58
2021/10/04 06:43:38;;;;;;;;;7.00;4.75;;;;;;;;2773219;51;8771;-58
2021/10/04 06:46:07;;;;;;;;;4.00;4.00;;;;;;;;2773417;51;8767;-57
2021/10/04 06:48:37;;;;;;;;;4.60;4.00;;;;;;;;2773051;51;8802;-58
2021/10/04 06:51:02;;;;;;;;;4.40;4.40;;;;;;;;2774075;51;8787;-58
2021/10/04 06:53:28;;;;;;;;;1.75;1.75;;;;;;;;2775563;51;8834;-57
2021/10/04 06:55:54;;;;;;;;;2.50;2.50;;;;;;;;2775414;51;8804;-58
2021/10/04 06:58:19;;;;;;;;;3.00;3.00;;;;;;;;2775275;51;8919;-59
2021/10/04 07:00:45;;;;;;;;;3.00;3.00;;;;;;;;2775135;51;8785;-57
2021/10/04 07:03:10;;;;;;;;;3.00;3.00;;;;;;;;2775139;51;8760;-59
2021/10/04 07:05:36;;;;;;;;;3.50;3.00;;;;;;;;2775203;51;8783;-58
2021/10/04 07:08:02;;;;;;;;;2.00;2.00;;;;;;;;2774568;51;9432;-58
2021/10/04 07:10:28;;;;;;;;;3.00;3.00;;;;;;;;2772368;51;8795;-57
2021/10/04 07:12:53;;;;;;;;;1.25;1.25;;;;;;;;2773155;51;8886;-60
2021/10/04 07:15:19;;;;;;;;;2.00;1.00;;;;;;;;2773136;51;11428;-57
2021/10/04 07:17:45;;;;;;;;;2.25;2.25;;;;;;;;2773181;51;11365;-57
2021/10/04 07:20:11;;;;;;;;;1.40;1.40;;;;;;;;2773053;51;8767;-59
2021/10/04 07:22:37;;;;;;;;;3.00;2.00;;;;;;;;2773001;51;8782;-58
2021/10/04 07:25:04;;;;;;;;;2.00;2.00;;;;;;;;2773085;51;8885;-57
2021/10/04 07:27:29;;;;;;;;;1.00;1.00;;;;;;;;2773201;51;8877;-57
2021/10/04 07:29:55;;;;;;;;;5.00;3.75;;;;;;;;2772959;51;8787;-59
2021/10/04 07:32:21;;;;;;;;;2.00;2.00;;;;;;;;2773033;51;8779;-59
2021/10/04 07:34:46;;;;;;;;;3.33;3.33;;;;;;;;2773090;51;8789;-59
2021/10/04 07:37:12;;;;;;;;;1.00;1.00;;;;;;;;2773026;51;8786;-57
2021/10/04 07:39:38;;;;;;;;;7.00;3.50;;;;;;;;2773040;51;8896;-57
2021/10/04 07:42:04;;;;;;;;;3.33;3.33;;;;;;;;2772857;51;8881;-56
2021/10/04 07:44:29;;;;;;;;;8.00;4.00;;;;;;;;2772942;51;8779;-57
2021/10/04 07:46:57;;;;;;;;;0.33;0.33;;;;;;;;2773280;51;9481;-58
2021/10/04 07:49:23;;;;;;;;;5.00;4.50;;;;;;;;2772915;51;8905;-59
2021/10/04 07:51:49;;;;;;;;;4.50;3.75;;;;;;;;2773282;51;8778;-59
2021/10/04 07:54:15;;;;;;;;;6.00;5.00;;;;;;;;2773220;51;8774;-57
2021/10/04 07:56:42;;;;;;;;;4.33;4.33;;;;;;;;2776487;51;8764;-57
2021/10/04 07:59:08;;;;;;;;;4.00;4.00;;;;;;;;2778134;51;9884;-57
2021/10/04 08:01:33;;;;;;;;;5.00;4.75;;;;;;;;2774961;51;8796;-57
2021/10/04 08:03:59;;;;;;;;;5.33;4.67;;;;;;;;2774969;51;8794;-56
2021/10/04 08:06:26;;;;;;;;;7.00;5.33;;;;;;;;2774756;51;10628;-57
2021/10/04 08:08:52;;;;;;;;;6.00;4.00;;;;;;;;2774970;51;8783;-57
2021/10/04 08:11:18;;;;;;;;;2.00;2.00;;;;;;;;2775486;51;9460;-57
2021/10/04 08:13:45;;;;;;;;;3.33;2.00;;;;;;;;2776244;51;8802;-58
2021/10/04 08:16:11;;;;;;;;;4.00;3.00;;;;;;;;2776314;51;8905;-58
2021/10/04 08:18:37;;;;;;;;;0.50;0.50;;;;;;;;2775672;51;8798;-58
2021/10/04 08:21:03;;;;;;;;;0.67;0.67;;;;;;;;2775944;51;8806;-60
2021/10/04 08:23:28;;;;;;;;;1.67;0.33;;;;;;;;2775825;51;8808;-57
2021/10/04 08:25:55;;;;;;;;;0.67;0.67;;;;;;;;2775869;51;8790;-59
2021/10/04 08:28:20;;;;;;;;;0.00;0.00;;;;;;;;2775679;51;8772;-58
2021/10/04 08:30:46;;;;;;;;;0.00;0.00;;;;;;;;2776235;51;8805;-56
2021/10/04 08:33:12;;;;;;;;;1.00;1.00;;;;;;;;2775502;51;8877;-56
2021/10/04 08:35:38;;;;;;;;;0.00;0.00;;;;;;;;2775032;51;11369;-57
2021/10/04 08:38:03;;;;;;;;;0.67;0.67;;;;;;;;2775418;51;8788;-57
2021/10/04 08:40:29;;;;;;;;;0.00;0.00;;;;;;;;2775315;51;8876;-59
2021/10/04 08:42:55;;;;;;;;;0.00;0.00;;;;;;;;2775560;51;8793;-58
2021/10/04 08:45:25;;;;;;;;;0.00;0.00;;;;;;;;2775834;51;8768;-57
2021/10/04 08:47:52;;;;;;;;;0.00;0.00;;;;;;;;2780673;51;8756;-58
2021/10/04 08:50:18;;;;;;;;;0.00;0.00;;;;;;;;2775582;51;9452;-57
2021/10/04 08:52:43;;;;;;;;;1.00;0.00;;;;;;;;2775893;51;8802;-57
2021/10/04 08:55:09;;;;;;;;;0.00;0.00;;;;;;;;2775662;51;8800;-57
2021/10/04 08:57:35;;;;;;;;;0.00;0.00;;;;;;;;2775687;51;8783;-58
2021/10/04 09:00:02;;;;;;;;;1.00;0.00;;;;;;;;2776041;51;9401;-64
2021/10/04 09:02:30;;;;;;;;;0.00;0.00;;;;;;;;2775728;51;8782;-61
2021/10/04 09:05:16;;;;;;;;;0.00;0.00;;;;;;;;2776022;51;8768;-58
2021/10/04 09:07:47;;;;;;;;;1.00;0.50;;;;;;;;2775860;51;8762;-59
2021/10/04 09:10:14;;;;;;;;;0.00;0.00;;;;;;;;2775499;51;8827;-59
2021/10/04 09:12:51;;;;;;;;;0.00;0.00;;;;;;;;2775706;51;8810;-59
2021/10/04 09:15:24;;;;;;;;;0.25;0.25;;;;;;;;2775767;51;8798;-60
2021/10/04 09:17:50;;;;;;;;;0.00;0.00;;;;;;;;2775844;51;8890;-58
2021/10/04 09:20:16;;;;;;;;;1.25;0.00;;;;;;;;2775070;51;8794;-62
2021/10/04 09:22:42;;;;;;;;;0.67;0.00;;;;;;;;2776009;51;8877;-59
2021/10/04 09:25:07;;;;;;;;;0.00;0.00;;;;;;;;2775949;51;8786;-61
2021/10/04 09:27:37;;;;;;;;;0.00;0.00;;;;;;;;2775559;51;8772;-60
2021/10/04 09:30:08;;;;;;;;;0.00;0.00;;;;;;;;2773865;51;8818;-59
2021/10/04 09:32:38;;;;;;;;;0.00;0.00;;;;;;;;2773986;51;8855;-61
2021/10/04 09:35:14;;;;;;;;;0.00;0.00;;;;;;;;2773870;51;8763;-60
2021/10/04 09:37:41;;;;;;;;;0.00;0.00;;;;;;;;2773855;51;8984;-59
2021/10/04 09:40:23;;;;;;;;;0.00;0.00;;;;;;;;2773802;51;9356;-60
2021/10/04 09:42:49;;;;;;;;;0.50;0.50;;;;;;;;2773703;51;8770;-61
2021/10/04 09:45:15;;;;;;;;;0.67;0.67;;;;;;;;2773767;51;8762;-60
2021/10/04 09:47:42;;;;;;;;;0.00;0.00;;;;;;;;2773457;51;8778;-58
2021/10/04 09:50:08;;;;;;;;;1.00;1.00;;;;;;;;2771403;51;10334;-63
2021/10/04 09:52:42;;;;;;;;;0.00;0.00;;;;;;;;2773899;51;8753;-60
2021/10/04 09:55:27;;;;;;;;;0.00;0.00;;;;;;;;2773351;51;8777;-60
2021/10/04 09:57:57;;;;;;;;;0.00;0.00;;;;;;;;2767459;51;8779;-61
2021/10/04 10:00:23;;;;;;;;;0.00;0.00;;;;;;;;2767766;51;8812;-61
2021/10/04 10:02:54;;;;;;;;;0.00;0.00;;;;;;;;2767660;51;8822;-59
2021/10/04 10:05:23;;;;;;;;;1.00;0.00;;;;;;;;2767837;51;8771;-61
2021/10/04 10:07:49;;;;;;;;;0.00;0.00;;;;;;;;2767326;51;8916;-60
2021/10/04 10:10:15;;;;;;;;;0.00;0.00;;;;;;;;2767176;51;8803;-60
2021/10/04 10:12:41;;;;;;;;;0.00;0.00;;;;;;;;2760508;51;10130;-61
2021/10/04 10:15:07;;;;;;;;;0.00;0.00;;;;;;;;2761430;51;8782;-62
2021/10/04 10:17:34;;;;;;;;;0.00;0.00;;;;;;;;2761786;51;8789;-60
2021/10/04 10:20:00;;;;;;;;;0.25;0.25;;;;;;;;2761364;51;8786;-60
2021/10/04 10:22:29;;;;;;;;;0.00;0.00;;;;;;;;2761442;51;8776;-60
2021/10/04 10:24:56;;;;;;;;;0.00;0.00;;;;;;;;2761329;52;8892;-63
2021/10/04 10:27:38;;;;;;;;;0.00;0.00;;;;;;;;2761316;51;8770;-60
2021/10/04 10:30:17;;;;;;;;;0.33;0.00;;;;;;;;2761281;51;8782;-59
2021/10/04 10:32:43;;;;;;;;;0.00;0.00;;;;;;;;2761418;51;8805;-61
2021/10/04 10:35:08;;;;;;;;;0.00;0.00;;;;;;;;2765098;51;8775;-59
2021/10/04 10:38:00;;;;;;;;;0.50;0.00;;;;;;;;2767382;51;8780;-60
2021/10/04 10:40:27;;;;;;;;;0.00;0.00;;;;;;;;2766670;51;8784;-61
2021/10/04 10:43:03;;;;;;;;;0.00;0.00;;;;;;;;2767470;51;8760;-60
2021/10/04 10:45:50;;;;;;;;;0.00;0.00;;;;;;;;2766845;51;8747;-63
2021/10/04 10:48:17;;;;;;;;;0.00;0.00;;;;;;;;2767545;51;8767;-63
2021/10/04 10:50:43;;;;;;;;;0.00;0.00;;;;;;;;2767343;51;8794;-59
2021/10/04 10:53:13;;;;;;;;;0.25;0.25;;;;;;;;2767239;51;8780;-61
2021/10/04 10:55:42;;;;;;;;;1.00;1.00;;;;;;;;2767030;51;8783;-58
2021/10/04 10:58:13;;;;;;;;;0.20;0.20;;;;;;;;2766947;51;8867;-59
2021/10/04 11:00:50;;;;;;;;;0.00;0.00;;;;;;;;2766984;51;8799;-60
2021/10/04 11:03:18;;;;;;;;;0.00;0.00;;;;;;;;2767291;51;8878;-59
2021/10/04 11:05:44;;;;;;;;;0.00;0.00;;;;;;;;2767491;51;8779;-60
2021/10/04 11:08:09;;;;;;;;;0.00;0.00;;;;;;;;2767181;51;8775;-59
2021/10/04 11:10:51;;;;;;;;;2.75;2.75;;;;;;;;2767102;51;8815;-60
2021/10/04 11:13:25;;;;;;;;;0.00;0.00;;;;;;;;2767234;51;8808;-61
2021/10/04 11:15:55;;;;;;;;;0.00;0.00;;;;;;;;2767275;51;8788;-60
2021/10/04 11:18:21;;;;;;;;;1.20;1.20;;;;;;;;2766959;51;8764;-60
2021/10/04 11:20:47;;;;;;;;;0.00;0.00;;;;;;;;2767000;51;8788;-60
2021/10/04 11:23:14;;;;;;;;;0.60;0.60;;;;;;;;2767131;51;8782;-62
2021/10/04 11:25:50;;;;;;;;;0.00;0.00;;;;;;;;2767017;51;8784;-60
2021/10/04 11:28:18;;;;;;;;;1.00;1.00;;;;;;;;2767170;51;8772;-62
2021/10/04 11:31:06;;;;;;;;;0.00;0.00;;;;;;;;2767172;51;8802;-60
2021/10/04 11:33:46;;;;;;;;;0.00;0.00;;;;;;;;2767196;51;8785;-59
2021/10/04 11:36:13;;;;;;;;;0.00;0.00;;;;;;;;2761143;51;8770;-59
2021/10/04 11:38:48;;;;;;;;;0.00;0.00;;;;;;;;2761091;52;9484;-62
2021/10/04 11:41:20;;;;;;;;;0.00;0.00;;;;;;;;2761169;52;9375;-62
2021/10/04 11:43:46;;;;;;;;;0.40;0.40;;;;;;;;2760785;52;8755;-60
2021/10/04 11:46:19;;;;;;;;;1.00;1.00;;;;;;;;2761181;52;9420;-61
2021/10/04 11:48:45;;;;;;;;;0.00;0.00;;;;;;;;2760938;52;8799;-59
2021/10/04 11:51:16;;;;;;;;;0.00;0.00;;;;;;;;2761034;52;8882;-59
2021/10/04 11:53:42;;;;;;;;;0.00;0.00;;;;;;;;2761377;52;9317;-61
2021/10/04 11:56:09;;;;;;;;;0.00;0.00;;;;;;;;2762893;51;9421;-61
2021/10/04 11:58:35;;;;;;;;;0.00;0.00;;;;;;;;2766898;51;8775;-61
2021/10/04 12:01:01;;;;;;;;;0.00;0.00;;;;;;;;2766821;51;8764;-60
2021/10/04 12:03:33;;;;;;;;;0.00;0.00;;;;;;;;2766893;51;8782;-61
2021/10/04 12:05:59;;;;;;;;;2.00;1.00;;;;;;;;2766813;51;8772;-58
2021/10/04 12:08:26;;;;;;;;;0.00;0.00;;;;;;;;2766974;51;8760;-58
2021/10/04 12:10:57;;;;;;;;;0.00;0.00;;;;;;;;2766790;51;8901;-60
2021/10/04 12:13:24;;;;;;;;;0.00;0.00;;;;;;;;2767206;51;8759;-60
2021/10/04 12:15:52;;;;;;;;;0.00;0.00;;;;;;;;2767080;51;8756;-59
2021/10/04 12:18:19;;;;;;;;;0.00;0.00;;;;;;;;2767109;51;8760;-61
2021/10/04 12:20:46;;;;;;;;;0.00;0.00;;;;;;;;2766689;51;8919;-60
2021/10/04 12:23:13;;;;;;;;;0.00;0.00;;;;;;;;2766754;51;8940;-60
2021/10/04 12:25:38;;;;;;;;;0.00;0.00;;;;;;;;2766853;51;8827;-59
2021/10/04 12:28:05;;;;;;;;;0.00;0.00;;;;;;;;2766938;51;8763;-61
2021/10/04 12:30:49;;;;;;;;;0.00;0.00;;;;;;;;2767096;51;8784;-62
2021/10/04 12:33:16;;;;;;;;;0.00;0.00;;;;;;;;2766651;51;8768;-60
2021/10/04 12:35:42;;;;;;;;;0.00;0.00;;;;;;;;2766567;51;8898;-62
2021/10/04 12:38:14;;;;;;;;;0.00;0.00;;;;;;;;2767299;51;8783;-59
2021/10/04 12:40:40;;;;;;;;;0.00;0.00;;;;;;;;2766665;51;8788;-60
2021/10/04 12:43:21;;;;;;;;;0.00;0.00;;;;;;;;2767179;51;8752;-60
2021/10/04 12:45:57;;;;;;;;;0.40;0.00;;;;;;;;2766802;51;8900;-61
2021/10/04 12:48:23;;;;;;;;;0.00;0.00;;;;;;;;2766745;51;8843;-60
2021/10/04 12:50:50;;;;;;;;;0.00;0.00;;;;;;;;2766938;51;8791;-61
2021/10/04 12:53:23;;;;;;;;;0.00;0.00;;;;;;;;2766591;51;8764;-61
2021/10/04 12:55:50;;;;;;;;;0.00;0.00;;;;;;;;2767193;51;8800;-62
2021/10/04 12:58:16;;;;;;;;;0.00;0.00;;;;;;;;2768163;51;8783;-59
2021/10/04 13:00:42;;;;;;;;;0.00;0.00;;;;;;;;2767494;51;8799;-58
2021/10/04 13:03:08;;;;;;;;;0.00;0.00;;;;;;;;2767907;51;8784;-60
2021/10/04 13:05:33;;;;;;;;;0.00;0.00;;;;;;;;2767668;51;8783;-59
2021/10/04 13:07:59;;;;;;;;;0.00;0.00;;;;;;;;2767697;51;8764;-60
2021/10/04 13:10:24;;;;;;;;;0.00;0.00;;;;;;;;2767885;51;9547;-59
2021/10/04 13:12:51;;;;;;;;;0.00;0.00;;;;;;;;2767059;51;9528;-58
2021/10/04 13:15:17;;;;;;;;;0.00;0.00;;;;;;;;2766537;51;8772;-60
2021/10/04 13:17:43;;;;;;;;;0.00;0.00;;;;;;;;2766473;51;8788;-60
2021/10/04 13:20:10;;;;;;;;;0.00;0.00;;;;;;;;2766408;51;8890;-59
2021/10/04 13:22:36;;;;;;;;;0.00;0.00;;;;;;;;2766081;51;8771;-59
2021/10/04 13:25:03;;;;;;;;;0.00;0.00;;;;;;;;2766497;51;8814;-58
2021/10/04 13:27:29;;;;;;;;;0.00;0.00;;;;;;;;2766033;51;8760;-58
2021/10/04 13:29:55;;;;;;;;;1.50;0.00;;;;;;;;2766737;51;9482;-58
2021/10/04 13:32:20;;;;;;;;;0.00;0.00;;;;;;;;2766191;51;8791;-58
2021/10/04 13:34:46;;;;;;;;;0.00;0.00;;;;;;;;2766982;51;8841;-60
2021/10/04 13:37:13;;;;;;;;;0.00;0.00;;;;;;;;2767769;51;8779;-59
2021/10/04 13:39:40;;;;;;;;;0.00;0.00;;;;;;;;2767696;51;8794;-59
2021/10/04 13:42:07;;;;;;;;;0.00;0.00;;;;;;;;2767373;51;8886;-60
2021/10/04 13:44:32;;;;;;;;;0.00;0.00;;;;;;;;2767356;51;8767;-61
2021/10/04 13:46:58;;;;;;;;;0.00;0.00;;;;;;;;2767382;51;8791;-63
2021/10/04 13:49:24;;;;;;;;;1.00;1.00;;;;;;;;2767600;51;9588;-59
2021/10/04 13:51:49;;;;;;;;;0.00;0.00;;;;;;;;2766889;51;8772;-59
2021/10/04 13:54:15;;;;;;;;;0.00;0.00;;;;;;;;2767719;51;8869;-62
2021/10/04 13:56:40;;;;;;;;;0.00;0.00;;;;;;;;2767473;51;8780;-60
2021/10/04 13:59:08;;;;;;;;;0.00;0.00;;;;;;;;2767197;51;8795;-59
2021/10/04 14:01:34;;;;;;;;;0.00;0.00;;;;;;;;2767685;51;8800;-59
2021/10/04 14:04:02;;;;;;;;;0.00;0.00;;;;;;;;2767398;51;8776;-59
2021/10/04 14:06:27;;;;;;;;;0.00;0.00;;;;;;;;2767576;51;8767;-61
2021/10/04 14:08:55;;;;;;;;;0.00;0.00;;;;;;;;2767446;51;8794;-60
2021/10/04 14:11:21;;;;;;;;;0.00;0.00;;;;;;;;2767491;51;8812;-64
2021/10/04 14:13:47;;;;;;;;;0.00;0.00;;;;;;;;2767615;51;8798;-61
2021/10/04 14:16:12;;;;;;;;;0.00;0.00;;;;;;;;2767513;51;8772;-59
2021/10/04 14:18:38;;;;;;;;;0.00;0.00;;;;;;;;2767733;51;9557;-60
2021/10/04 14:21:04;;;;;;;;;0.00;0.00;;;;;;;;2767307;51;8794;-60
2021/10/04 14:23:29;;;;;;;;;0.33;0.00;;;;;;;;2767435;51;8768;-62
2021/10/04 14:25:55;;;;;;;;;0.00;0.00;;;;;;;;2767582;51;8895;-60
2021/10/04 14:28:21;;;;;;;;;0.00;0.00;;;;;;;;2767565;51;9413;-61
2021/10/04 14:30:46;;;;;;;;;1.00;0.00;;;;;;;;2767627;51;8841;-60
2021/10/04 14:33:12;;;;;;;;;0.00;0.00;;;;;;;;2767326;51;8776;-63
2021/10/04 14:35:38;;;;;;;;;0.00;0.00;;;;;;;;2767449;51;8748;-60
2021/10/04 14:38:03;;;;;;;;;0.00;0.00;;;;;;;;2767367;51;8787;-60
2021/10/04 14:40:30;;;;;;;;;0.67;0.00;;;;;;;;2767317;51;8791;-61
2021/10/04 14:42:56;;;;;;;;;0.00;0.00;;;;;;;;2767590;51;8791;-62
2021/10/04 14:45:23;;;;;;;;;0.00;0.00;;;;;;;;2767092;51;8760;-61
2021/10/04 14:47:48;;;;;;;;;0.60;0.60;;;;;;;;2767510;51;8783;-60
2021/10/04 14:50:14;;;;;;;;;0.00;0.00;;;;;;;;2767329;51;8772;-59
2021/10/04 14:52:40;;;;;;;;;0.00;0.00;;;;;;;;2767258;51;9412;-61